createdAt,value
2022-09-04T00:00:14.384Z,1.95
2022-09-04T00:02:53.038Z,2.75
2022-09-04T00:05:26.635Z,2.00
2022-09-04T00:08:06.490Z,2.33
2022-09-04T00:10:41.739Z,1.40
2022-09-04T00:13:15.880Z,2.15
2022-09-04T00:15:49.646Z,1.30
2022-09-04T00:18:25.336Z,1.45
2022-09-04T00:21:01.885Z,1.58
2022-09-04T00:23:38.896Z,1.67
2022-09-04T00:26:14.589Z,1.70
2022-09-04T00:28:49.189Z,2.08
2022-09-04T00:31:26.922Z,2.70
2022-09-04T00:34:07.327Z,2.83
2022-09-04T00:36:39.910Z,3.53
2022-09-04T00:39:13.772Z,1.70
2022-09-04T00:41:55.773Z,3.15
2022-09-04T00:44:48.547Z,3.53
2022-09-04T00:47:45.846Z,2.72
2022-09-04T00:50:30.574Z,2.58
2022-09-04T00:53:31.307Z,1.98
2022-09-04T00:56:26.911Z,1.35
2022-09-04T00:59:09.824Z,3.15
2022-09-04T01:01:38.825Z,2.33
2022-09-04T01:04:36.133Z,2.45
2022-09-04T01:07:14.645Z,2.72
2022-09-04T01:10:08.550Z,2.63
2022-09-04T01:12:41.296Z,3.30
2022-09-04T01:15:16.063Z,3.88
2022-09-04T01:17:53.906Z,2.95
2022-09-04T01:20:54.069Z,2.85
2022-09-04T01:23:46.327Z,2.78
2022-09-04T01:26:23.761Z,2.45
2022-09-04T01:29:07.314Z,2.22
2022-09-04T01:31:45.540Z,3.45
2022-09-04T01:34:36.126Z,3.15
2022-09-04T01:37:18.869Z,3.35
2022-09-04T01:39:57.671Z,3.42
2022-09-04T01:42:34.071Z,3.83
2022-09-04T01:45:02.088Z,4.65
2022-09-04T01:47:36.979Z,3.03
2022-09-04T01:50:11.209Z,3.03
2022-09-04T01:52:48.174Z,2.55
2022-09-04T01:55:24.060Z,4.07
2022-09-04T01:58:12.588Z,4.32
2022-09-04T02:00:51.153Z,3.03
2022-09-04T02:03:27.642Z,3.20
2022-09-04T02:06:05.970Z,3.10
2022-09-04T02:08:55.239Z,2.55
2022-09-04T02:11:27.884Z,3.45
2022-09-04T02:14:11.064Z,2.78
2022-09-04T02:16:46.834Z,2.90
2022-09-04T02:19:31.927Z,3.35
2022-09-04T02:22:08.498Z,3.38
2022-09-04T02:24:44.636Z,2.70
2022-09-04T02:29:52.816Z,2.67
2022-09-04T02:32:25.992Z,2.75
2022-09-04T02:35:03.679Z,2.78
2022-09-04T02:37:36.738Z,3.55
2022-09-04T02:40:16.207Z,3.60
2022-09-04T02:42:57.836Z,3.78
2022-09-04T02:45:35.580Z,2.63
2022-09-04T02:48:13.722Z,3.88
2022-09-04T02:50:57.329Z,3.10
2022-09-04T02:53:31.719Z,3.40
2022-09-04T02:56:20.880Z,2.78
2022-09-04T02:59:03.381Z,3.63
2022-09-04T03:01:41.203Z,3.75
2022-09-04T03:04:17.149Z,3.17
2022-09-04T03:06:52.148Z,2.70
2022-09-04T03:09:25.942Z,3.35
2022-09-04T03:12:00.646Z,2.95
2022-09-04T03:14:35.898Z,3.47
2022-09-04T03:17:13.005Z,3.07
2022-09-04T03:19:47.527Z,3.85
2022-09-04T03:22:24.698Z,2.85
2022-09-04T03:25:10.703Z,3.45
2022-09-04T03:27:39.248Z,2.90
2022-09-04T03:30:10.424Z,2.90
2022-09-04T03:32:52.984Z,3.47
2022-09-04T03:35:27.123Z,2.95
2022-09-04T03:38:09.979Z,4.00
2022-09-04T03:40:42.931Z,2.90
2022-09-04T03:43:39.596Z,2.90
2022-09-04T03:46:19.977Z,2.80
2022-09-04T03:48:58.690Z,3.42
2022-09-04T03:51:39.856Z,3.00
2022-09-04T03:54:17.530Z,3.60
2022-09-04T03:56:56.926Z,4.10
2022-09-04T03:59:42.337Z,3.10
2022-09-04T04:02:23.120Z,3.95
2022-09-04T04:05:17.962Z,3.10
2022-09-04T04:08:04.429Z,2.83
2022-09-04T04:10:46.621Z,3.80
2022-09-04T04:13:42.861Z,3.58
2022-09-04T04:16:31.246Z,3.25
2022-09-04T04:19:19.403Z,3.03
2022-09-04T04:22:04.143Z,3.67
2022-09-04T04:25:01.156Z,3.47
2022-09-04T04:30:08.400Z,2.88
2022-09-04T04:32:56.285Z,3.40
2022-09-04T04:35:36.612Z,3.50
2022-09-04T04:38:18.636Z,3.72
2022-09-04T04:41:17.532Z,3.75
2022-09-04T04:43:59.229Z,5.30
2022-09-04T04:46:37.268Z,4.03
2022-09-04T04:49:34.258Z,4.38
2022-09-04T04:52:33.681Z,4.03
2022-09-04T04:55:31.061Z,5.88
2022-09-04T04:58:38.559Z,4.45
2022-09-04T05:03:54.842Z,4.38
2022-09-04T05:06:36.129Z,4.85
2022-09-04T05:09:14.955Z,4.22
2022-09-04T05:11:54.737Z,4.97
2022-09-04T05:14:34.010Z,4.95
2022-09-04T05:17:12.696Z,4.45
2022-09-04T05:19:48.250Z,6.40
2022-09-04T05:22:25.531Z,6.25
2022-09-04T05:25:03.970Z,3.83
2022-09-04T05:27:57.119Z,4.43
2022-09-04T05:30:33.963Z,5.15
2022-09-04T05:33:09.560Z,5.88
2022-09-04T05:35:45.412Z,6.55
2022-09-04T05:38:22.613Z,7.85
2022-09-04T05:41:05.321Z,9.05
2022-09-04T05:44:01.469Z,10.90
2022-09-04T05:46:46.564Z,13.60
2022-09-04T05:49:38.041Z,15.10
2022-09-04T05:52:27.270Z,13.85
2022-09-04T05:55:23.460Z,15.65
2022-09-04T05:58:02.533Z,14.67
2022-09-04T06:00:37.991Z,16.52
2022-09-04T06:03:33.992Z,16.13
2022-09-04T06:06:12.269Z,19.97
2022-09-04T06:09:07.475Z,22.85
2022-09-04T06:11:51.496Z,18.60
2022-09-04T06:14:46.775Z,22.90
2022-09-04T06:17:29.501Z,24.00
2022-09-04T06:20:10.966Z,22.80
2022-09-04T06:23:05.194Z,23.10
2022-09-04T06:26:00.904Z,26.95
2022-09-04T06:28:43.377Z,20.38
2022-09-04T06:31:33.015Z,21.83
2022-09-04T06:34:12.426Z,20.48
2022-09-04T06:36:55.562Z,21.83
2022-09-04T06:39:46.190Z,18.88
2022-09-04T06:42:32.642Z,19.65
2022-09-04T06:45:20.558Z,19.15
2022-09-04T06:48:04.436Z,21.88
2022-09-04T06:50:45.360Z,21.13
2022-09-04T06:53:23.092Z,25.15
2022-09-04T06:56:04.412Z,22.90
2022-09-04T06:59:15.932Z,20.65
2022-09-04T07:02:01.202Z,19.17
2022-09-04T07:04:44.986Z,15.65
2022-09-04T07:07:23.666Z,17.35
2022-09-04T07:10:01.302Z,14.82
2022-09-04T07:12:54.520Z,14.13
2022-09-04T07:15:46.152Z,18.63
2022-09-04T07:18:24.671Z,13.20
2022-09-04T07:21:04.289Z,11.93
2022-09-04T07:23:45.025Z,11.25
2022-09-04T07:26:28.599Z,10.20
2022-09-04T07:29:12.465Z,10.50
2022-09-04T07:31:45.154Z,13.98
2022-09-04T07:34:22.438Z,10.73
2022-09-04T07:36:57.180Z,11.00
2022-09-04T07:39:33.096Z,10.65
2022-09-04T07:44:42.139Z,11.05
2022-09-04T07:47:18.379Z,9.55
2022-09-04T07:49:56.837Z,10.32
2022-09-04T07:52:39.408Z,12.05
2022-09-04T07:55:24.848Z,9.88
2022-09-04T07:58:18.811Z,9.43
2022-09-04T08:01:01.585Z,9.88
2022-09-04T08:03:49.183Z,11.98
2022-09-04T08:06:28.609Z,8.68
2022-09-04T08:09:18.405Z,6.95
2022-09-04T08:12:10.547Z,10.10
2022-09-04T08:14:53.697Z,7.70
2022-09-04T08:17:41.455Z,7.60
2022-09-04T08:20:17.576Z,7.78
2022-09-04T08:22:54.026Z,7.32
2022-09-04T08:25:28.995Z,6.63
2022-09-04T08:28:17.381Z,7.40
2022-09-04T08:30:54.659Z,7.45
2022-09-04T08:33:40.967Z,7.25
2022-09-04T08:38:56.587Z,6.65
2022-09-04T08:42:14.686Z,5.25
2022-09-04T08:45:42.446Z,6.68
2022-09-04T08:51:41.449Z,5.50
2022-09-04T08:54:37.765Z,6.07
2022-09-04T08:57:40.364Z,6.20
2022-09-04T09:00:11.022Z,4.97
2022-09-04T09:03:12.978Z,6.03
2022-09-04T09:06:06.721Z,6.10
2022-09-04T09:09:23.650Z,6.75
2022-09-04T09:12:40.932Z,5.13
2022-09-04T09:15:39.989Z,7.45
2022-09-04T09:18:31.379Z,4.65
2022-09-04T09:21:08.058Z,4.88
2022-09-04T09:24:23.819Z,5.25
2022-09-04T09:27:04.601Z,5.88
2022-09-04T09:30:07.392Z,5.65
2022-09-04T09:33:12.971Z,5.93
2022-09-04T09:36:08.237Z,5.80
2022-09-04T09:38:57.630Z,4.95
2022-09-04T09:42:00.865Z,6.00
2022-09-04T09:45:08.743Z,4.28
2022-09-04T09:48:20.502Z,4.72
2022-09-04T09:51:33.521Z,5.18
2022-09-04T09:54:25.282Z,4.85
2022-09-04T09:57:33.507Z,5.00
2022-09-04T10:00:14.778Z,4.55
2022-09-04T10:03:15.649Z,4.38
2022-09-04T10:06:14.066Z,4.95
2022-09-04T10:09:23.206Z,3.45
2022-09-04T10:12:35.647Z,3.42
2022-09-04T10:15:26.541Z,4.57
2022-09-04T10:18:33.816Z,3.33
2022-09-04T10:21:48.029Z,3.42
2022-09-04T10:24:46.867Z,4.13
2022-09-04T10:28:00.554Z,3.53
2022-09-04T10:30:33.461Z,5.28
2022-09-04T10:33:32.670Z,4.30
2022-09-04T10:36:14.069Z,4.35
2022-09-04T10:39:09.465Z,5.22
2022-09-04T10:42:02.925Z,3.50
2022-09-04T10:44:45.281Z,3.53
2022-09-04T10:47:26.593Z,2.95
2022-09-04T10:50:24.129Z,3.38
2022-09-04T10:53:21.092Z,3.72
2022-09-04T10:56:12.078Z,4.07
2022-09-04T10:59:21.198Z,2.67
2022-09-04T11:02:23.337Z,3.03
2022-09-04T11:05:20.400Z,3.22
2022-09-04T11:08:22.068Z,2.33
2022-09-04T11:11:12.179Z,2.42
2022-09-04T11:14:08.411Z,3.60
2022-09-04T11:17:13.122Z,2.42
2022-09-04T11:20:17.575Z,4.05
2022-09-04T11:23:19.107Z,2.63
2022-09-04T11:26:22.923Z,2.85
2022-09-04T11:29:31.068Z,3.08
2022-09-04T11:32:29.950Z,3.42
2022-09-04T11:35:36.340Z,2.78
2022-09-04T11:38:28.458Z,2.08
2022-09-04T11:41:36.345Z,1.52
2022-09-04T11:44:25.188Z,1.88
2022-09-04T11:47:13.234Z,1.70
2022-09-04T11:49:58.599Z,3.17
2022-09-04T11:52:35.710Z,2.22
2022-09-04T11:55:19.241Z,2.03
2022-09-04T11:58:23.535Z,2.47
2022-09-04T12:01:04.157Z,2.67
2022-09-04T12:03:54.379Z,1.98
2022-09-04T12:06:35.043Z,1.73
2022-09-04T12:09:23.755Z,2.22
2022-09-04T12:12:29.617Z,1.98
2022-09-04T12:15:22.354Z,2.20
2022-09-04T12:18:25.655Z,2.03
2022-09-04T12:21:27.713Z,1.95
2022-09-04T12:24:46.234Z,2.13
2022-09-04T12:28:10.410Z,1.63
2022-09-04T12:30:51.683Z,1.25
2022-09-04T12:33:43.554Z,1.98
2022-09-04T12:36:59.431Z,1.92
2022-09-04T12:39:52.564Z,3.60
2022-09-04T12:42:29.190Z,2.13
2022-09-04T12:45:09.306Z,1.58
2022-09-04T12:47:55.507Z,1.50
2022-09-04T12:50:35.259Z,5.72
2022-09-04T12:53:26.539Z,10.00
2022-09-04T12:56:03.242Z,1.80
2022-09-04T12:58:44.928Z,1.60
2022-09-04T13:01:17.298Z,2.97
2022-09-04T13:03:54.347Z,1.33
2022-09-04T13:06:33.182Z,1.55
2022-09-04T13:09:13.668Z,2.40
2022-09-04T13:11:52.389Z,0.90
2022-09-04T13:14:42.015Z,2.10
2022-09-04T13:17:19.831Z,1.25
2022-09-04T13:19:59.048Z,1.50
2022-09-04T13:22:36.102Z,1.65
2022-09-04T13:25:12.169Z,1.38
2022-09-04T13:27:50.363Z,1.63
2022-09-04T13:30:24.452Z,2.92
2022-09-04T13:33:11.169Z,2.30
2022-09-04T13:35:59.982Z,1.13
2022-09-04T13:38:57.388Z,1.10
2022-09-04T13:41:50.901Z,1.73
2022-09-04T13:44:40.781Z,1.77
2022-09-04T13:47:14.984Z,0.85
2022-09-04T13:49:47.905Z,0.60
2022-09-04T13:52:23.559Z,0.63
2022-09-04T13:55:00.221Z,0.85
2022-09-04T13:57:31.175Z,2.25
2022-09-04T14:00:07.289Z,0.80
2022-09-04T14:02:39.125Z,1.17
2022-09-04T14:05:11.459Z,1.05
2022-09-04T14:07:44.883Z,1.08
2022-09-04T14:10:17.357Z,1.40
2022-09-04T14:13:14.662Z,1.10
2022-09-04T14:16:02.501Z,2.28
2022-09-04T14:18:57.106Z,1.52
2022-09-04T14:21:47.565Z,1.27
2022-09-04T14:24:21.449Z,0.95
2022-09-04T14:26:56.619Z,0.77
2022-09-04T14:29:36.204Z,1.20
2022-09-04T14:32:18.641Z,1.25
2022-09-04T14:35:02.354Z,1.17
2022-09-04T14:37:59.239Z,1.10
2022-09-04T14:40:31.331Z,1.17
2022-09-04T14:43:10.688Z,1.70
2022-09-04T14:46:00.046Z,1.15
2022-09-04T14:48:29.024Z,1.23
2022-09-04T14:51:11.394Z,1.35
2022-09-04T14:53:39.496Z,1.33
2022-09-04T14:56:20.892Z,0.93
2022-09-04T14:58:54.190Z,0.98
2022-09-04T15:01:24.570Z,0.95
2022-09-04T15:03:59.114Z,1.60
2022-09-04T15:06:44.600Z,0.88
2022-09-04T15:09:23.551Z,1.33
2022-09-04T15:12:09.030Z,1.83
2022-09-04T15:14:48.637Z,1.85
2022-09-04T15:17:28.543Z,1.25
2022-09-04T15:20:03.157Z,1.27
2022-09-04T15:22:38.315Z,1.10
2022-09-04T15:25:09.718Z,2.58
2022-09-04T15:27:47.460Z,2.08
2022-09-04T15:30:21.810Z,2.60
2022-09-04T15:32:51.816Z,1.25
2022-09-04T15:35:26.310Z,1.48
2022-09-04T15:38:12.717Z,1.27
2022-09-04T15:41:06.089Z,1.17
2022-09-04T15:43:42.574Z,0.93
2022-09-04T15:46:18.647Z,1.42
2022-09-04T15:48:53.489Z,1.05
2022-09-04T15:51:28.220Z,3.05
2022-09-04T15:54:22.144Z,0.73
2022-09-04T15:57:03.069Z,0.95
2022-09-04T15:59:45.419Z,0.52
2022-09-04T16:02:36.358Z,1.33
2022-09-04T16:05:18.569Z,1.27
2022-09-04T16:08:03.880Z,1.40
2022-09-04T16:10:47.731Z,0.95
2022-09-04T16:13:35.812Z,1.27
2022-09-04T16:16:12.207Z,1.25
2022-09-04T16:18:52.188Z,0.60
2022-09-04T16:21:32.343Z,0.98
2022-09-04T16:24:09.107Z,1.10
2022-09-04T16:26:39.323Z,0.73
2022-09-04T16:29:15.888Z,1.98
2022-09-04T16:31:53.112Z,1.13
2022-09-04T16:34:24.474Z,0.98
2022-09-04T16:37:01.999Z,1.45
2022-09-04T16:39:39.981Z,1.13
2022-09-04T16:42:20.596Z,2.05
2022-09-04T16:44:54.250Z,1.63
2022-09-04T16:47:29.137Z,2.17
2022-09-04T16:50:04.005Z,2.03
2022-09-04T16:52:47.244Z,0.70
2022-09-04T16:55:24.743Z,0.90
2022-09-04T16:58:08.776Z,2.25
2022-09-04T17:01:13.614Z,1.95
2022-09-04T17:03:51.976Z,0.63
2022-09-04T17:06:29.380Z,1.02
2022-09-04T17:09:06.205Z,0.60
2022-09-04T17:11:44.092Z,2.10
2022-09-04T17:14:31.971Z,0.90
2022-09-04T17:17:12.462Z,0.93
2022-09-04T17:20:07.613Z,2.08
2022-09-04T17:29:01.004Z,1.30
2022-09-04T17:29:07.535Z,1.70
2022-09-04T17:29:22.315Z,1.15
2022-09-04T17:31:51.877Z,1.38
2022-09-04T17:40:36.171Z,0.95
2022-09-04T17:40:50.300Z,1.35
2022-09-04T17:41:33.352Z,1.45
2022-09-04T17:43:32.964Z,1.23
2022-09-04T17:46:15.846Z,1.98
2022-09-04T17:48:46.948Z,1.08
2022-09-04T17:51:21.458Z,1.17
2022-09-04T17:53:52.693Z,2.08
2022-09-04T17:56:25.719Z,1.50
2022-09-04T17:59:01.639Z,1.30
2022-09-04T18:01:33.834Z,0.90
2022-09-04T18:04:26.167Z,1.65
2022-09-04T18:07:01.063Z,1.13
2022-09-04T18:10:00.265Z,1.25
2022-09-04T18:12:35.204Z,1.33
2022-09-04T18:15:32.403Z,2.63
2022-09-04T18:18:09.457Z,1.20
2022-09-04T18:20:45.057Z,2.67
2022-09-04T18:23:51.423Z,1.77
2022-09-04T18:31:05.895Z,3.13
2022-09-04T18:37:10.498Z,0.80
2022-09-04T18:37:23.208Z,1.48
2022-09-04T18:38:20.819Z,1.30
2022-09-04T18:44:00.855Z,2.75
2022-09-04T18:50:31.589Z,1.85
2022-09-04T18:50:36.448Z,1.20
2022-09-04T18:50:47.268Z,1.67
2022-09-04T18:52:19.721Z,2.00
2022-09-04T18:54:54.048Z,2.42
2022-09-04T18:57:28.056Z,1.63
2022-09-04T19:00:08.770Z,1.83
2022-09-04T19:02:52.990Z,2.03
2022-09-04T19:05:24.243Z,2.75
2022-09-04T19:07:56.701Z,1.45
2022-09-04T19:10:29.224Z,1.65
2022-09-04T19:13:03.061Z,1.65
2022-09-04T19:16:01.454Z,2.83
2022-09-04T19:18:43.832Z,1.98
2022-09-04T19:21:33.890Z,2.03
2022-09-04T19:24:21.418Z,1.90
2022-09-04T19:27:25.048Z,2.17
2022-09-04T19:30:18.681Z,2.13
2022-09-04T19:33:12.417Z,2.65
2022-09-04T19:35:47.913Z,2.47
2022-09-04T19:45:56.333Z,3.63
2022-09-04T19:46:03.817Z,1.80
2022-09-04T19:46:25.876Z,3.35
2022-09-04T19:47:28.742Z,2.53
2022-09-04T19:53:22.273Z,3.15
2022-09-04T19:53:30.286Z,2.38
2022-09-04T19:55:47.621Z,3.45
2022-09-04T19:58:19.317Z,5.25
2022-09-04T20:00:56.216Z,2.40
2022-09-04T20:03:30.884Z,2.38
2022-09-04T20:06:20.033Z,3.28
2022-09-04T20:08:55.872Z,2.50
2022-09-04T20:11:34.955Z,2.40
2022-09-04T20:14:14.477Z,2.33
2022-09-04T20:16:55.150Z,2.42
2022-09-04T20:19:28.883Z,3.45
2022-09-04T20:22:01.801Z,3.45
2022-09-04T20:24:39.591Z,3.22
2022-09-04T20:27:16.002Z,2.72
2022-09-04T20:29:54.573Z,1.70
2022-09-04T20:32:28.977Z,3.47
2022-09-04T20:35:14.082Z,3.10
2022-09-04T20:37:51.595Z,2.73
2022-09-04T20:40:32.930Z,3.67
2022-09-04T20:43:22.468Z,4.30
2022-09-04T20:49:09.521Z,2.50
2022-09-04T20:52:50.730Z,3.97
2022-09-04T20:52:55.658Z,4.40
2022-09-04T20:55:02.084Z,2.80
2022-09-04T21:02:36.159Z,3.45
2022-09-04T21:03:15.015Z,3.72
2022-09-04T21:03:34.248Z,2.97
2022-09-04T21:06:17.736Z,3.60
2022-09-04T21:08:54.307Z,4.40
2022-09-04T21:11:41.349Z,3.47
2022-09-04T21:14:16.568Z,4.20
2022-09-04T21:17:33.784Z,4.57
2022-09-04T21:20:30.940Z,3.33
2022-09-04T21:23:20.219Z,4.25
2022-09-04T21:25:59.501Z,3.58
2022-09-04T21:28:45.558Z,3.00
2022-09-04T21:31:23.497Z,3.00
2022-09-04T21:34:05.733Z,5.72
2022-09-04T21:36:40.851Z,3.22
2022-09-04T21:39:54.092Z,3.90
2022-09-04T21:42:46.054Z,4.03
2022-09-04T21:45:37.762Z,4.18
2022-09-04T21:48:35.794Z,4.13
2022-09-04T21:51:33.210Z,3.92
2022-09-04T21:54:38.120Z,4.55
2022-09-04T22:02:28.188Z,5.30
2022-09-04T22:02:35.907Z,4.72
2022-09-04T22:04:02.326Z,3.85
2022-09-04T22:07:05.253Z,5.50
2022-09-04T22:13:30.304Z,4.63
2022-09-04T22:13:39.968Z,3.95
2022-09-04T22:15:41.615Z,4.05
2022-09-04T22:18:27.822Z,3.67
2022-09-04T22:21:12.003Z,3.90
2022-09-04T22:24:16.794Z,4.15
2022-09-04T22:27:14.297Z,4.55
2022-09-04T22:29:54.004Z,4.32
2022-09-04T22:33:02.394Z,4.18
2022-09-04T22:35:55.197Z,5.22
2022-09-04T22:38:37.077Z,4.55
2022-09-04T22:41:32.295Z,4.38
2022-09-04T22:44:09.491Z,5.18
2022-09-04T22:47:21.380Z,4.80
2022-09-04T22:50:18.495Z,4.72
2022-09-04T22:53:08.957Z,5.75
2022-09-04T22:56:23.613Z,4.72
2022-09-04T22:59:26.277Z,5.43
2022-09-04T23:02:18.398Z,4.03
2022-09-04T23:05:05.055Z,5.25
2022-09-04T23:13:54.249Z,6.57
2022-09-04T23:14:02.318Z,5.43
2022-09-04T23:14:07.700Z,5.35
2022-09-04T23:17:09.293Z,5.07
2022-09-04T23:23:41.534Z,4.25
2022-09-04T23:26:53.818Z,4.72
2022-09-04T23:27:00.274Z,4.43
2022-09-04T23:30:05.284Z,4.82
2022-09-04T23:33:00.431Z,5.00
2022-09-04T23:35:41.405Z,4.45
2022-09-04T23:38:32.332Z,4.05
2022-09-04T23:41:08.915Z,4.10
2022-09-04T23:44:06.011Z,5.00
2022-09-04T23:47:05.709Z,3.78
2022-09-04T23:49:45.979Z,4.07
2022-09-04T23:52:27.120Z,3.92
2022-09-04T23:55:10.407Z,3.83
2022-09-04T23:57:49.456Z,4.05
